Time;durP1;ratioP1;P1;durP2;ratioP2;P2;SDS_P1;SDS_P2;PMS_P1;PMS_P2;Temp;Humidity;BMP_temperature;BMP_pressure;BME280_temperature;BME280_humidity;BME280_pressure;Samples;Min_cycle;Max_cycle;Signal;HPM_P1;HPM_P2
2022/01/21 00:02:25;;;;;;;3.70;0.60;;;-1.20;99.90;;;;;;5099973;28;20196;-72
2022/01/21 00:04:53;;;;;;;3.42;1.83;;;-1.20;99.90;;;;;;5098337;28;20320;-71
2022/01/21 00:07:21;;;;;;;2.08;1.08;;;-1.20;99.90;;;;;;5099474;28;20219;-71
2022/01/21 00:09:49;;;;;;;2.03;1.92;;;-1.20;99.90;;;;;;5100667;28;20226;-72
2022/01/21 00:12:17;;;;;;;3.17;1.20;;;-1.10;99.90;;;;;;5101954;28;20200;-72
2022/01/21 00:14:46;;;;;;;4.65;0.90;;;-1.10;99.90;;;;;;5103423;28;20195;-70
2022/01/21 00:17:16;;;;;;;5.90;1.85;;;-1.10;99.90;;;;;;5102015;28;20729;-70
2022/01/21 00:19:47;;;;;;;7.13;1.27;;;-1.00;99.90;;;;;;5099984;28;20206;-68
2022/01/21 00:30:44;;;;;;;1.70;1.60;;;-1.10;99.90;;;;;;5077162;28;20202;-71
2022/01/21 00:33:12;;;;;;;3.53;1.63;;;-1.10;99.90;;;;;;5095017;28;20199;-71
2022/01/21 00:35:40;;;;;;;2.28;1.40;;;-1.20;99.90;;;;;;5099762;28;20195;-70
2022/01/21 00:38:08;;;;;;;3.15;1.10;;;-1.20;99.90;;;;;;5099802;28;20622;-70
2022/01/21 00:40:36;;;;;;;7.47;1.50;;;-1.10;99.90;;;;;;5099944;28;20239;-71
2022/01/21 00:43:12;;;;;;;5.13;1.38;;;-1.10;99.90;;;;;;5101537;28;20202;-71
2022/01/21 00:45:40;;;;;;;2.28;1.13;;;-1.10;99.90;;;;;;5100685;28;20284;-70
2022/01/21 00:48:10;;;;;;;4.88;1.77;;;-1.10;99.90;;;;;;5106266;28;20239;-71
2022/01/21 00:50:37;;;;;;;5.00;1.52;;;-1.10;99.90;;;;;;5122720;28;20236;-71
2022/01/21 00:53:05;;;;;;;2.78;0.93;;;-1.00;99.90;;;;;;5108274;28;20196;-71
2022/01/21 00:55:33;;;;;;;4.60;1.20;;;-1.00;99.90;;;;;;5101215;28;20195;-71
2022/01/21 00:58:01;;;;;;;1.60;1.27;;;-1.00;99.90;;;;;;5100664;28;20358;-70
2022/01/21 01:00:29;;;;;;;3.03;1.20;;;-1.00;99.90;;;;;;5100292;28;20203;-70
2022/01/21 01:02:57;;;;;;;6.45;1.65;;;-1.00;99.90;;;;;;5099819;28;20200;-71
2022/01/21 01:05:27;;;;;;;3.55;1.00;;;-0.90;99.90;;;;;;5100069;28;20443;-70
2022/01/21 01:07:55;;;;;;;8.10;2.05;;;-1.00;99.90;;;;;;5099573;28;20219;-72
2022/01/21 01:10:36;;;;;;;4.70;1.30;;;-1.00;99.90;;;;;;5099574;28;20202;-70
2022/01/21 01:21:19;;;;;;;13.20;1.77;;;-1.00;99.90;;;;;;5099787;28;20732;-70
2022/01/21 01:24:03;;;;;;;5.85;1.42;;;-1.00;99.90;;;;;;5099248;28;20624;-70
2022/01/21 01:29:19;;;;;;;6.47;1.15;;;-1.10;99.90;;;;;;5101195;28;20670;-70
2022/01/21 01:31:47;;;;;;;5.80;1.40;;;-1.10;99.90;;;;;;5103266;28;20200;-70
2022/01/21 01:34:15;;;;;;;3.88;1.40;;;-1.10;99.90;;;;;;5103063;28;20198;-71
2022/01/21 01:36:46;;;;;;;2.30;1.60;;;-1.10;99.90;;;;;;5102477;28;20222;-69
2022/01/21 01:39:18;;;;;;;3.50;1.75;;;-1.00;99.90;;;;;;5102213;28;20842;-69
2022/01/21 01:41:52;;;;;;;7.47;1.23;;;-1.00;99.90;;;;;;5102982;28;20207;-69
2022/01/21 01:49:51;;;;;;;9.93;2.58;;;-0.80;99.90;;;;;;5103140;28;20184;-73
2022/01/21 01:52:20;;;;;;;5.78;1.95;;;-0.80;99.90;;;;;;5102016;28;20884;-70
2022/01/21 01:54:52;;;;;;;7.70;1.80;;;-0.80;99.90;;;;;;5102222;28;20237;-72
2022/01/21 01:57:20;;;;;;;5.22;1.85;;;-0.80;99.90;;;;;;5102597;28;20591;-72
2022/01/21 01:59:48;;;;;;;6.05;1.65;;;-0.80;99.90;;;;;;5101945;28;20746;-71
2022/01/21 02:02:18;;;;;;;10.32;2.35;;;-0.80;99.90;;;;;;5102141;28;20808;-73
2022/01/21 02:04:49;;;;;;;2.85;1.58;;;-0.80;99.90;;;;;;5102548;28;20282;-73
2022/01/21 02:07:17;;;;;;;3.90;1.38;;;-0.80;99.90;;;;;;5101576;28;20509;-73
2022/01/21 02:09:47;;;;;;;6.78;1.95;;;-0.70;99.90;;;;;;5101533;28;20213;-73
2022/01/21 02:12:15;;;;;;;5.93;1.05;;;-0.70;99.90;;;;;;5102032;28;20204;-74
2022/01/21 02:14:49;;;;;;;4.95;1.73;;;-0.70;99.90;;;;;;5102627;28;20199;-73
2022/01/21 02:21:28;;;;;;;5.38;2.03;;;-0.80;99.90;;;;;;5102708;28;20309;-72
2022/01/21 02:22:55;;;;;;;9.88;2.40;;;-0.80;99.90;;;;;;5102401;28;20402;-72
2022/01/21 02:25:23;;;;;;;7.75;1.58;;;-0.80;99.90;;;;;;5103218;28;20789;-71
2022/01/21 02:27:57;;;;;;;8.00;2.45;;;-0.90;99.90;;;;;;5103755;28;20272;-70
2022/01/21 02:30:26;;;;;;;4.38;2.80;;;-0.90;99.90;;;;;;5104229;28;20199;-69
2022/01/21 02:32:56;;;;;;;2.67;1.73;;;-1.00;99.90;;;;;;5104142;28;20200;-70
2022/01/21 02:35:24;;;;;;;3.80;2.28;;;-1.00;99.90;;;;;;5102707;28;20234;-72
2022/01/21 02:37:52;;;;;;;6.28;1.50;;;-1.00;99.90;;;;;;5102460;28;20307;-71
2022/01/21 02:40:22;;;;;;;5.93;1.90;;;-1.00;99.90;;;;;;5101454;28;20203;-72
2022/01/21 02:42:50;;;;;;;9.80;2.72;;;-0.90;99.90;;;;;;5101649;28;20199;-72
2022/01/21 02:45:18;;;;;;;8.55;1.90;;;-0.90;99.90;;;;;;5100955;28;20206;-73
2022/01/21 02:47:46;;;;;;;6.30;2.10;;;-0.90;99.90;;;;;;5101049;28;20228;-72
2022/01/21 02:50:16;;;;;;;7.45;1.85;;;-0.90;99.90;;;;;;5102021;28;20199;-72
2022/01/21 02:52:55;;;;;;;1.30;1.20;;;-0.80;99.90;;;;;;5101380;28;20208;-74
2022/01/21 02:55:25;;;;;;;9.85;2.33;;;-0.80;99.90;;;;;;5100965;28;20188;-71
2022/01/21 02:57:53;;;;;;;15.23;1.75;;;-0.80;99.90;;;;;;5102801;28;20212;-71
2022/01/21 03:00:21;;;;;;;5.75;2.67;;;-0.80;99.90;;;;;;5101628;28;20277;-71
2022/01/21 03:02:49;;;;;;;8.02;1.90;;;-0.80;99.90;;;;;;5102371;28;20216;-71
2022/01/21 03:05:18;;;;;;;5.32;3.17;;;-0.80;99.90;;;;;;5101094;28;20294;-72
2022/01/21 03:07:47;;;;;;;9.38;1.90;;;-0.80;99.90;;;;;;5101447;28;20215;-71
2022/01/21 03:10:16;;;;;;;3.03;1.67;;;-0.70;99.90;;;;;;5102126;28;20196;-69
2022/01/21 03:12:45;;;;;;;7.80;1.92;;;-0.70;99.90;;;;;;5101976;28;20214;-69
2022/01/21 03:15:13;;;;;;;9.05;2.25;;;-0.60;99.90;;;;;;5119004;28;20203;-67
2022/01/21 03:17:41;;;;;;;8.52;2.20;;;-0.60;99.90;;;;;;5118597;28;20216;-68
2022/01/21 03:20:10;;;;;;;8.50;1.55;;;-0.60;99.90;;;;;;5101957;28;20772;-68
2022/01/21 03:22:37;;;;;;;6.18;2.42;;;-0.50;99.90;;;;;;5101887;28;20845;-67
2022/01/21 03:25:06;;;;;;;7.75;2.42;;;-0.50;99.90;;;;;;5101142;28;20211;-68
2022/01/21 03:27:35;;;;;;;6.40;1.90;;;-0.40;99.90;;;;;;5100797;28;20223;-67
2022/01/21 03:30:08;;;;;;;12.57;2.05;;;-0.30;99.90;;;;;;5101303;28;20282;-67
2022/01/21 03:32:36;;;;;;;4.35;1.90;;;-0.20;99.90;;;;;;5101055;28;20238;-69
2022/01/21 03:35:05;;;;;;;5.35;1.55;;;-0.20;99.90;;;;;;5101122;28;20206;-68
2022/01/21 03:37:33;;;;;;;10.32;2.15;;;-0.10;99.90;;;;;;5101562;28;20237;-68
2022/01/21 03:40:01;;;;;;;11.88;2.10;;;-0.20;99.90;;;;;;5101362;28;20195;-68
2022/01/21 03:42:28;;;;;;;4.15;1.70;;;-0.20;99.90;;;;;;5101502;28;20302;-68
2022/01/21 03:44:56;;;;;;;12.13;2.92;;;-0.20;99.90;;;;;;5099830;28;20202;-70
2022/01/21 03:47:25;;;;;;;9.10;2.85;;;-0.20;99.90;;;;;;5100527;28;20314;-69
2022/01/21 03:49:56;;;;;;;6.78;1.90;;;-0.20;99.90;;;;;;5100781;28;20203;-71
2022/01/21 03:52:24;;;;;;;10.93;2.17;;;-0.20;99.90;;;;;;5099924;28;20730;-70
2022/01/21 03:54:52;;;;;;;5.47;1.50;;;-0.20;99.90;;;;;;5100234;28;20199;-70
2022/01/21 03:57:20;;;;;;;5.57;1.63;;;-0.20;99.90;;;;;;5100676;28;20223;-70
2022/01/21 03:59:48;;;;;;;11.10;2.72;;;-0.20;99.90;;;;;;5101272;28;20206;-71
2022/01/21 04:02:16;;;;;;;10.85;2.63;;;-0.10;99.90;;;;;;5100788;28;20200;-70
2022/01/21 04:04:45;;;;;;;8.23;3.55;;;0.00;99.90;;;;;;5099570;28;20206;-71
2022/01/21 04:07:13;;;;;;;7.60;1.90;;;0.10;99.90;;;;;;5099842;28;20239;-70
2022/01/21 04:09:41;;;;;;;7.40;2.22;;;0.10;99.90;;;;;;5099959;28;20195;-71
2022/01/21 04:12:10;;;;;;;12.32;2.25;;;0.20;99.90;;;;;;5099646;28;20200;-71
2022/01/21 04:14:38;;;;;;;5.68;1.83;;;0.30;99.90;;;;;;5099565;28;20377;-70
2022/01/21 04:17:06;;;;;;;5.78;1.30;;;0.40;99.90;;;;;;5099286;28;20215;-69
2022/01/21 04:19:34;;;;;;;4.22;1.70;;;0.40;99.90;;;;;;5099570;28;20703;-71
2022/01/21 04:22:04;;;;;;;7.05;2.42;;;0.50;99.90;;;;;;5099783;28;20709;-71
2022/01/21 04:24:31;;;;;;;6.93;2.22;;;0.50;99.90;;;;;;5099727;28;20200;-70
2022/01/21 04:26:59;;;;;;;7.97;1.90;;;0.50;99.90;;;;;;5099110;28;20226;-71
2022/01/21 04:29:27;;;;;;;10.13;2.95;;;0.50;99.90;;;;;;5099759;28;20754;-70
2022/01/21 04:31:55;;;;;;;5.68;1.65;;;0.50;99.90;;;;;;5099588;28;20207;-71
2022/01/21 04:34:23;;;;;;;8.88;2.60;;;0.50;99.90;;;;;;5099269;28;20203;-72
2022/01/21 04:36:51;;;;;;;5.28;2.10;;;0.50;99.90;;;;;;5099723;28;20230;-71
2022/01/21 04:39:26;;;;;;;4.95;1.80;;;0.50;99.90;;;;;;5099200;28;20283;-71
2022/01/21 04:47:38;;;;;;;5.18;1.90;;;0.50;99.90;;;;;;5054038;28;20317;-68
2022/01/21 04:50:11;;;;;;;4.57;2.00;;;0.60;99.90;;;;;;5053489;28;20202;-69
2022/01/21 04:52:41;;;;;;;6.38;1.77;;;0.60;99.90;;;;;;5053441;28;20292;-70
2022/01/21 04:55:11;;;;;;;5.30;1.60;;;0.60;99.90;;;;;;5054645;28;20982;-68
2022/01/21 04:57:39;;;;;;;10.82;2.47;;;0.50;99.90;;;;;;5041824;28;20214;-69
2022/01/21 05:00:08;;;;;;;14.32;3.10;;;0.60;99.90;;;;;;5095273;28;20200;-70
2022/01/21 05:02:36;;;;;;;10.25;2.20;;;0.60;99.90;;;;;;5107623;28;20286;-67
2022/01/21 05:05:06;;;;;;;7.93;2.08;;;0.60;99.90;;;;;;5109303;28;20204;-68
2022/01/21 05:07:37;;;;;;;9.20;1.40;;;0.60;99.90;;;;;;5105494;28;20302;-68
2022/01/21 05:10:05;;;;;;;5.82;2.28;;;0.60;99.90;;;;;;5106792;28;20204;-67
2022/01/21 05:12:34;;;;;;;4.90;1.95;;;0.60;99.90;;;;;;5105272;28;20203;-68
2022/01/21 05:15:13;;;;;;;15.23;3.15;;;0.70;99.90;;;;;;5104480;28;20204;-69
2022/01/21 05:17:48;;;;;;;8.43;2.00;;;0.70;99.90;;;;;;5103683;28;20222;-68
2022/01/21 05:20:16;;;;;;;5.53;2.70;;;0.70;99.90;;;;;;5102899;28;20187;-69
2022/01/21 05:22:45;;;;;;;9.15;2.30;;;0.70;99.90;;;;;;5103382;28;20283;-68
2022/01/21 05:25:18;;;;;;;8.80;3.42;;;0.80;99.90;;;;;;5102908;28;20200;-68
2022/01/21 05:27:50;;;;;;;11.80;2.90;;;0.80;99.90;;;;;;5103273;28;20311;-68
2022/01/21 05:30:19;;;;;;;10.05;1.80;;;0.70;99.90;;;;;;5102786;28;20714;-73
2022/01/21 05:32:47;;;;;;;7.78;2.13;;;0.70;99.90;;;;;;5110075;28;20199;-72
2022/01/21 05:35:15;;;;;;;12.75;2.20;;;0.70;99.90;;;;;;5104688;28;20199;-73
2022/01/21 05:37:43;;;;;;;16.83;2.17;;;0.70;99.90;;;;;;5104331;28;20302;-71
2022/01/21 05:40:14;;;;;;;14.57;3.15;;;0.80;99.90;;;;;;5117474;28;20210;-71
2022/01/21 05:42:41;;;;;;;6.75;2.42;;;0.80;99.90;;;;;;5127507;28;20200;-73
2022/01/21 05:47:57;;;;;;;7.35;2.60;;;0.90;99.90;;;;;;5103175;28;20778;-73
2022/01/21 05:50:25;;;;;;;4.15;1.73;;;0.90;99.90;;;;;;5102681;28;20210;-72
2022/01/21 05:52:55;;;;;;;14.40;2.20;;;0.90;99.90;;;;;;5102990;28;20678;-72
2022/01/21 05:55:23;;;;;;;7.47;2.25;;;0.90;99.90;;;;;;5102214;28;20210;-70
2022/01/21 05:57:51;;;;;;;4.90;1.70;;;0.90;99.90;;;;;;5103303;28;20242;-74
2022/01/21 06:00:21;;;;;;;13.60;1.88;;;0.90;99.90;;;;;;5102676;28;20203;-73
2022/01/21 06:02:48;;;;;;;8.63;1.92;;;0.90;99.90;;;;;;5102218;28;20747;-74
2022/01/21 06:05:17;;;;;;;7.78;1.83;;;0.90;99.90;;;;;;5102499;28;20208;-74
2022/01/21 06:07:45;;;;;;;7.13;1.63;;;0.80;99.90;;;;;;5102809;28;20731;-72
2022/01/21 06:10:12;;;;;;;4.93;1.85;;;0.90;99.90;;;;;;5104555;28;20201;-74
2022/01/21 06:12:40;;;;;;;16.73;1.88;;;0.90;99.90;;;;;;5103148;28;20373;-72
2022/01/21 06:15:09;;;;;;;5.50;1.70;;;0.90;99.90;;;;;;5100933;28;20199;-70
2022/01/21 06:17:38;;;;;;;6.53;1.63;;;0.80;99.90;;;;;;5102983;28;20223;-71
2022/01/21 06:20:07;;;;;;;4.60;1.65;;;0.80;99.90;;;;;;5102476;28;20218;-73
2022/01/21 06:22:35;;;;;;;8.07;1.70;;;0.80;99.90;;;;;;5103376;28;20286;-72
2022/01/21 06:25:04;;;;;;;11.38;2.42;;;0.80;99.90;;;;;;5102864;28;20682;-73
2022/01/21 06:27:34;;;;;;;7.15;1.50;;;0.80;99.90;;;;;;5102356;28;20216;-73
2022/01/21 06:30:02;;;;;;;4.47;1.50;;;0.80;99.90;;;;;;5102649;28;20227;-72
2022/01/21 06:32:30;;;;;;;10.32;2.00;;;0.80;99.90;;;;;;5101876;28;20206;-73
2022/01/21 06:35:01;;;;;;;2.60;0.80;;;0.80;99.90;;;;;;5101959;28;20204;-71
2022/01/21 06:37:31;;;;;;;3.50;1.52;;;0.90;99.90;;;;;;5103607;28;20289;-71
2022/01/21 06:39:58;;;;;;;8.18;1.50;;;0.90;99.90;;;;;;5103150;28;20220;-69
2022/01/21 06:42:28;;;;;;;9.15;1.75;;;0.80;99.90;;;;;;5101919;27;20202;-72
2022/01/21 06:44:56;;;;;;;2.85;1.60;;;0.80;99.90;;;;;;5101776;28;20752;-73
2022/01/21 06:47:24;;;;;;;8.45;1.85;;;0.80;99.90;;;;;;5101718;28;20837;-71
2022/01/21 06:49:52;;;;;;;7.93;1.60;;;0.70;99.90;;;;;;5101668;28;20281;-72
2022/01/21 06:52:21;;;;;;;3.13;1.35;;;0.60;99.90;;;;;;5102203;28;20211;-71
2022/01/21 06:54:49;;;;;;;5.28;2.05;;;0.60;99.90;;;;;;5105422;27;20198;-73
2022/01/21 06:57:17;;;;;;;6.53;1.35;;;0.60;99.90;;;;;;5121840;27;20206;-73
2022/01/21 06:59:45;;;;;;;3.08;1.00;;;0.60;99.90;;;;;;5123196;27;20201;-71
2022/01/21 07:02:13;;;;;;;11.38;3.45;;;0.60;99.90;;;;;;5122418;27;20209;-70
2022/01/21 07:04:40;;;;;;;6.78;1.30;;;0.60;99.90;;;;;;5121988;27;20322;-71
2022/01/21 07:07:08;;;;;;;7.93;1.77;;;0.50;99.90;;;;;;5123038;27;20215;-71
2022/01/21 07:09:37;;;;;;;12.82;2.08;;;0.50;99.90;;;;;;5120229;27;20599;-72
2022/01/21 07:12:06;;;;;;;5.97;1.65;;;0.50;99.90;;;;;;5128792;27;20190;-71
2022/01/21 07:14:34;;;;;;;5.90;1.85;;;0.40;99.90;;;;;;5141899;27;20202;-69
2022/01/21 07:17:02;;;;;;;5.50;1.50;;;0.40;99.90;;;;;;5142481;27;20308;-70
2022/01/21 07:19:30;;;;;;;4.50;2.00;;;0.40;99.90;;;;;;5141735;27;20334;-69
2022/01/21 07:21:58;;;;;;;3.00;1.35;;;0.40;99.90;;;;;;5141613;27;20224;-68
2022/01/21 07:24:26;;;;;;;8.20;1.10;;;0.40;99.90;;;;;;5141495;27;20213;-69
2022/01/21 07:26:55;;;;;;;3.25;1.30;;;0.40;99.90;;;;;;5141759;27;20302;-68
2022/01/21 07:29:23;;;;;;;12.95;2.35;;;0.40;99.90;;;;;;5141359;27;20771;-68
2022/01/21 07:31:54;;;;;;;6.45;1.75;;;0.40;99.90;;;;;;5142553;27;20282;-72
2022/01/21 07:34:23;;;;;;;4.93;1.80;;;0.30;99.90;;;;;;5142579;27;20695;-72
2022/01/21 07:36:51;;;;;;;1.58;1.48;;;0.30;99.90;;;;;;5143171;27;20783;-75
2022/01/21 07:39:20;;;;;;;6.38;2.22;;;0.20;99.90;;;;;;5145062;27;20209;-75
2022/01/21 07:41:48;;;;;;;6.07;1.85;;;0.20;99.90;;;;;;5144254;27;20206;-76
2022/01/21 07:44:18;;;;;;;2.97;2.00;;;0.20;99.90;;;;;;5144029;27;20210;-76
2022/01/21 07:46:46;;;;;;;4.55;1.73;;;0.20;99.90;;;;;;5145841;27;20744;-75
2022/01/21 07:49:16;;;;;;;14.38;1.45;;;0.20;99.90;;;;;;5145047;27;20248;-76
2022/01/21 07:51:44;;;;;;;4.82;1.00;;;0.20;99.90;;;;;;5143197;27;20218;-78
2022/01/21 07:54:13;;;;;;;4.80;1.52;;;0.20;99.90;;;;;;5122323;27;20201;-74
2022/01/21 07:56:42;;;;;;;5.38;1.15;;;0.20;99.90;;;;;;5121891;27;20230;-75
2022/01/21 07:59:12;;;;;;;8.18;1.88;;;0.20;99.90;;;;;;5115069;27;20275;-73
2022/01/21 08:01:41;;;;;;;4.63;1.50;;;0.20;99.90;;;;;;5109242;27;20187;-73
2022/01/21 08:04:12;;;;;;;6.10;1.85;;;0.20;99.90;;;;;;5111358;27;20661;-72
2022/01/21 08:06:40;;;;;;;3.03;1.20;;;0.20;99.90;;;;;;5113518;27;20481;-73
2022/01/21 08:09:08;;;;;;;2.83;1.40;;;0.20;99.90;;;;;;5111040;27;20211;-71
2022/01/21 08:11:36;;;;;;;1.90;1.80;;;0.20;99.90;;;;;;5109856;27;20192;-74
2022/01/21 08:14:04;;;;;;;2.28;0.90;;;0.20;99.90;;;;;;5099091;28;20200;-71
2022/01/21 08:16:33;;;;;;;6.00;1.60;;;0.20;99.90;;;;;;5099195;28;20226;-70
2022/01/21 08:19:05;;;;;;;8.13;2.13;;;0.20;99.90;;;;;;5098515;28;20682;-71
2022/01/21 08:21:32;;;;;;;4.55;1.20;;;0.30;99.90;;;;;;5099214;28;20191;-68
2022/01/21 08:24:00;;;;;;;9.93;2.05;;;0.30;99.90;;;;;;5098810;28;20206;-71
2022/01/21 08:26:29;;;;;;;3.03;1.38;;;0.40;99.90;;;;;;5099112;28;20216;-70
2022/01/21 08:28:57;;;;;;;3.60;1.30;;;0.40;99.90;;;;;;5099112;28;20207;-72
2022/01/21 08:31:25;;;;;;;6.75;1.60;;;0.40;99.90;;;;;;5098648;28;20678;-70
2022/01/21 08:33:53;;;;;;;5.35;1.45;;;0.50;99.90;;;;;;5098378;28;20195;-71
2022/01/21 08:36:24;;;;;;;3.90;2.00;;;0.60;99.90;;;;;;5098695;28;20202;-72
2022/01/21 08:38:52;;;;;;;7.30;2.83;;;0.60;99.90;;;;;;5101627;28;20280;-70
2022/01/21 08:41:21;;;;;;;12.48;3.05;;;0.70;99.90;;;;;;5102738;28;20431;-72
2022/01/21 08:43:49;;;;;;;6.50;1.05;;;0.60;99.90;;;;;;5104737;27;20444;-71
2022/01/21 08:46:17;;;;;;;4.78;1.10;;;0.60;99.90;;;;;;5128989;27;20194;-70
2022/01/21 08:48:45;;;;;;;4.20;1.55;;;0.70;99.90;;;;;;5131542;27;20194;-71
2022/01/21 08:51:24;;;;;;;2.47;0.90;;;0.80;99.90;;;;;;5144208;27;20222;-71
2022/01/21 08:53:53;;;;;;;3.00;1.40;;;0.80;99.90;;;;;;5134633;27;20195;-71
2022/01/21 08:56:21;;;;;;;7.80;2.45;;;0.80;99.90;;;;;;5132004;27;20278;-71
2022/01/21 08:58:50;;;;;;;11.32;1.35;;;0.90;99.90;;;;;;5121725;27;20284;-70
2022/01/21 09:01:18;;;;;;;6.28;1.65;;;0.90;99.90;;;;;;5123203;27;20222;-70
2022/01/21 09:03:46;;;;;;;3.70;1.55;;;0.90;99.90;;;;;;5121683;27;20677;-72
2022/01/21 09:06:18;;;;;;;4.60;1.88;;;1.00;99.90;;;;;;5122303;27;20198;-73
2022/01/21 09:08:46;;;;;;;2.40;1.85;;;1.00;99.90;;;;;;5121418;27;20206;-72
2022/01/21 09:11:16;;;;;;;5.10;1.35;;;1.10;99.90;;;;;;5122558;27;20861;-72
2022/01/21 09:13:44;;;;;;;2.97;1.35;;;1.10;99.90;;;;;;5123447;27;20198;-72
2022/01/21 09:16:12;;;;;;;4.95;1.88;;;1.10;99.90;;;;;;5123905;27;20290;-72
2022/01/21 09:18:47;;;;;;;3.15;1.10;;;1.10;99.90;;;;;;5122630;27;20237;-72
2022/01/21 09:21:35;;;;;;;6.45;1.92;;;1.20;99.90;;;;;;5102662;28;20291;-71
2022/01/21 09:24:04;;;;;;;2.50;0.95;;;1.20;99.90;;;;;;5102680;28;20195;-72
2022/01/21 09:26:33;;;;;;;3.33;1.38;;;1.30;99.90;;;;;;5102419;28;20220;-72
2022/01/21 09:29:03;;;;;;;3.97;1.27;;;1.30;99.90;;;;;;5102296;28;20679;-71
2022/01/21 09:31:31;;;;;;;4.93;1.40;;;1.40;99.90;;;;;;5101486;28;20222;-72
2022/01/21 09:34:19;;;;;;;5.20;1.00;;;1.40;99.90;;;;;;5102096;28;20592;-73
2022/01/21 09:36:47;;;;;;;5.15;1.55;;;1.50;99.90;;;;;;5102543;28;20222;-73
2022/01/21 09:39:15;;;;;;;7.05;1.55;;;1.60;99.90;;;;;;5102063;28;20200;-73
2022/01/21 09:41:44;;;;;;;2.00;0.95;;;1.60;99.90;;;;;;5103107;28;20199;-73
2022/01/21 09:44:13;;;;;;;5.78;0.93;;;1.60;99.90;;;;;;5102869;28;20192;-73
2022/01/21 09:46:45;;;;;;;3.83;1.30;;;1.70;99.90;;;;;;5101929;28;20746;-74
2022/01/21 09:49:26;;;;;;;2.55;1.10;;;1.80;99.90;;;;;;5101495;28;20655;-74
2022/01/21 09:51:56;;;;;;;8.18;1.80;;;1.80;99.90;;;;;;5101419;28;20233;-74
2022/01/21 09:54:27;;;;;;;6.07;1.35;;;1.90;99.90;;;;;;5101720;28;20224;-73
2022/01/21 09:56:57;;;;;;;3.72;1.50;;;2.00;99.90;;;;;;5101274;28;20311;-74
2022/01/21 09:59:28;;;;;;;3.53;1.05;;;2.00;99.90;;;;;;5102371;28;20203;-74
2022/01/21 10:01:58;;;;;;;8.70;2.05;;;2.00;99.90;;;;;;5102806;28;20187;-73
2022/01/21 10:04:28;;;;;;;6.90;1.00;;;2.10;99.90;;;;;;5106834;28;20811;-74
2022/01/21 10:06:57;;;;;;;2.45;0.90;;;2.10;99.90;;;;;;5104026;28;20819;-74
2022/01/21 10:09:26;;;;;;;1.95;0.93;;;2.20;99.90;;;;;;5102934;28;20260;-72
2022/01/21 10:11:56;;;;;;;2.35;1.00;;;2.20;99.90;;;;;;5102149;28;20224;-72
2022/01/21 10:14:26;;;;;;;2.58;1.15;;;2.20;99.90;;;;;;5102992;28;20877;-71
2022/01/21 10:16:54;;;;;;;3.67;0.93;;;2.20;99.90;;;;;;5101970;28;20226;-72
2022/01/21 10:19:24;;;;;;;4.75;1.35;;;2.20;99.90;;;;;;5102317;28;20196;-71
2022/01/21 10:21:59;;;;;;;2.45;0.85;;;2.20;99.90;;;;;;5101916;28;20204;-71
2022/01/21 10:24:28;;;;;;;6.63;1.15;;;2.20;99.90;;;;;;5104842;28;20334;-72
2022/01/21 10:26:58;;;;;;;6.90;2.17;;;2.20;99.90;;;;;;5103351;28;20219;-72
2022/01/21 10:29:36;;;;;;;2.65;0.90;;;2.30;99.90;;;;;;5103186;28;20206;-73
2022/01/21 10:32:05;;;;;;;3.97;1.10;;;2.40;99.90;;;;;;5103716;28;20693;-74
2022/01/21 10:34:38;;;;;;;6.57;1.15;;;2.40;99.90;;;;;;5111085;28;20678;-75
2022/01/21 10:37:22;;;;;;;6.32;1.40;;;2.40;99.90;;;;;;5114256;28;20223;-73
2022/01/21 10:40:01;;;;;;;5.18;1.42;;;2.30;99.90;;;;;;5118799;28;20207;-73
2022/01/21 10:42:31;;;;;;;5.07;1.70;;;2.40;99.90;;;;;;5125159;28;20266;-73
2022/01/21 10:45:00;;;;;;;5.75;0.90;;;2.40;99.90;;;;;;5117102;28;20221;-72
2022/01/21 10:47:29;;;;;;;4.35;1.25;;;2.40;99.90;;;;;;5108913;28;20243;-74
2022/01/21 10:49:59;;;;;;;1.65;1.02;;;2.50;99.90;;;;;;5104727;28;20287;-74
2022/01/21 10:52:33;;;;;;;3.58;1.30;;;2.50;99.90;;;;;;5102996;28;20221;-73
2022/01/21 10:55:01;;;;;;;1.42;0.80;;;2.70;99.90;;;;;;5114919;28;20196;-73
2022/01/21 10:57:30;;;;;;;5.75;1.40;;;2.80;99.90;;;;;;5101706;28;20216;-73
2022/01/21 11:00:02;;;;;;;5.97;1.85;;;2.90;99.90;;;;;;5102045;28;20203;-74
2022/01/21 11:02:36;;;;;;;10.80;2.30;;;2.90;99.90;;;;;;5101589;28;20286;-73
2022/01/21 11:05:09;;;;;;;2.33;1.65;;;2.90;99.90;;;;;;5101684;28;20211;-72
2022/01/21 11:07:48;;;;;;;9.27;2.05;;;3.00;99.90;;;;;;5101463;28;20813;-73
2022/01/21 11:10:42;;;;;;;5.00;1.90;;;3.00;99.90;;;;;;5101434;28;20369;-71
2022/01/21 11:13:38;;;;;;;4.65;2.00;;;3.10;99.90;;;;;;5092208;28;20294;-73
2022/01/21 11:16:15;;;;;;;7.85;1.80;;;3.20;99.90;;;;;;5095155;28;20210;-73
2022/01/21 11:19:08;;;;;;;9.77;1.63;;;3.20;99.90;;;;;;5111255;28;20203;-73
2022/01/21 11:22:02;;;;;;;2.47;1.35;;;3.30;99.90;;;;;;5104349;28;20203;-72
2022/01/21 11:24:29;;;;;;;2.85;1.65;;;3.30;99.90;;;;;;5096807;28;20211;-69
2022/01/21 11:27:09;;;;;;;3.72;1.50;;;3.40;99.90;;;;;;5100851;28;20220;-75
2022/01/21 11:29:37;;;;;;;5.53;1.75;;;3.40;99.90;;;;;;5099811;28;20207;-73
2022/01/21 11:32:07;;;;;;;4.40;2.00;;;3.50;99.90;;;;;;5100174;28;20223;-74
2022/01/21 11:34:36;;;;;;;7.40;2.88;;;3.60;99.90;;;;;;5099934;28;20221;-76
2022/01/21 11:37:05;;;;;;;5.13;1.67;;;3.80;99.90;;;;;;5100163;28;20279;-67
2022/01/21 11:39:34;;;;;;;7.18;2.08;;;3.80;99.90;;;;;;5100007;28;20203;-69
2022/01/21 11:42:05;;;;;;;9.88;3.20;;;3.90;99.90;;;;;;5099388;28;20291;-69
2022/01/21 11:44:37;;;;;;;4.88;2.65;;;4.00;99.90;;;;;;5098856;28;20256;-69
2022/01/21 11:47:27;;;;;;;3.10;1.67;;;4.10;99.90;;;;;;5099685;28;20234;-69
2022/01/21 11:49:57;;;;;;;2.47;1.35;;;4.20;99.90;;;;;;5106938;27;20713;-69
2022/01/21 11:52:27;;;;;;;6.03;2.00;;;4.30;99.90;;;;;;5098814;28;20211;-69
2022/01/21 11:54:55;;;;;;;7.03;2.20;;;4.40;99.90;;;;;;5098778;28;20305;-67
2022/01/21 11:57:31;;;;;;;5.72;2.00;;;4.40;99.90;;;;;;5103821;27;20217;-69
2022/01/21 12:00:05;;;;;;;3.20;2.13;;;4.50;99.90;;;;;;5119619;27;20201;-68
2022/01/21 12:02:36;;;;;;;7.68;1.52;;;4.60;99.90;;;;;;5119218;27;20202;-69
2022/01/21 12:05:07;;;;;;;7.22;1.85;;;4.70;99.90;;;;;;5120592;27;20292;-68
2022/01/21 12:07:57;;;;;;;6.95;3.50;;;4.80;99.90;;;;;;5120331;27;20759;-68
2022/01/21 12:10:39;;;;;;;11.50;1.80;;;4.90;99.90;;;;;;5120772;27;20199;-73
2022/01/21 12:13:14;;;;;;;3.25;1.95;;;4.90;99.90;;;;;;5119285;27;20229;-71
2022/01/21 12:19:20;;;;;;;9.23;2.00;;;5.00;99.90;;;;;;5121172;28;20212;-70
2022/01/21 12:21:50;;;;;;;12.10;2.00;;;5.10;99.90;;;;;;5120702;27;20191;-70
2022/01/21 12:24:45;;;;;;;2.60;1.55;;;5.20;99.90;;;;;;5120163;27;20195;-70
2022/01/21 12:27:15;;;;;;;6.93;2.30;;;5.20;99.90;;;;;;5119872;27;20306;-70
2022/01/21 12:29:43;;;;;;;11.23;2.45;;;5.30;99.90;;;;;;5120691;27;20199;-71
2022/01/21 12:32:25;;;;;;;8.30;2.08;;;5.30;99.90;;;;;;5120071;28;20313;-69
2022/01/21 12:35:16;;;;;;;4.70;2.30;;;5.30;99.90;;;;;;5119653;28;20203;-70
2022/01/21 12:39:05;;;;;;;8.25;2.67;;;5.30;99.90;;;;;;5119000;27;20215;-70
2022/01/21 12:41:04;;;;;;;4.78;1.80;;;5.30;99.90;;;;;;5119200;27;20207;-71
2022/01/21 12:43:47;;;;;;;5.45;2.10;;;5.40;99.90;;;;;;5115425;27;20674;-71
2022/01/21 12:46:16;;;;;;;8.27;2.30;;;5.50;99.90;;;;;;5098713;28;20192;-68
2022/01/21 12:48:46;;;;;;;7.60;2.45;;;5.50;99.90;;;;;;5098644;28;20188;-69
2022/01/21 12:51:17;;;;;;;10.00;1.98;;;5.50;99.90;;;;;;5097703;28;20200;-70
2022/01/21 12:56:42;;;;;;;6.28;2.30;;;5.50;99.90;;;;;;5107509;27;20227;-71
2022/01/21 12:59:17;;;;;;;4.10;2.10;;;5.50;99.90;;;;;;5108421;27;20191;-70
2022/01/21 13:01:46;;;;;;;12.70;3.30;;;5.50;99.90;;;;;;5098322;28;20281;-70
2022/01/21 13:04:34;;;;;;;5.45;2.03;;;5.40;99.90;;;;;;5098543;28;20786;-69
2022/01/21 13:07:08;;;;;;;6.35;1.30;;;5.30;99.90;;;;;;5099512;28;20239;-67
2022/01/21 13:10:00;;;;;;;11.98;1.50;;;5.10;99.90;;;;;;5100009;28;20203;-68
2022/01/21 13:12:46;;;;;;;4.22;1.73;;;5.10;99.90;;;;;;5100325;28;20208;-67
2022/01/21 13:15:15;;;;;;;7.32;2.28;;;5.10;99.90;;;;;;5099216;28;20758;-67
2022/01/21 13:17:43;;;;;;;8.02;2.03;;;5.10;99.90;;;;;;5103231;28;20293;-68
2022/01/21 13:20:11;;;;;;;5.82;2.05;;;5.00;99.90;;;;;;5110323;27;20196;-76
2022/01/21 13:22:41;;;;;;;4.93;1.88;;;5.00;99.90;;;;;;5111167;27;20282;-72
2022/01/21 13:25:15;;;;;;;6.85;2.20;;;5.00;99.90;;;;;;5117342;27;20191;-70
2022/01/21 13:27:46;;;;;;;6.43;1.73;;;4.90;99.90;;;;;;5122671;27;20717;-71
2022/01/21 13:30:17;;;;;;;4.18;1.85;;;4.90;99.90;;;;;;5123427;27;20739;-69
2022/01/21 13:32:45;;;;;;;6.40;1.10;;;4.80;99.90;;;;;;5122347;27;20828;-71
2022/01/21 13:35:16;;;;;;;7.40;2.13;;;4.70;99.90;;;;;;5122842;27;20203;-72
2022/01/21 13:38:02;;;;;;;8.63;2.50;;;4.80;99.90;;;;;;5122057;27;20653;-71
2022/01/21 13:40:33;;;;;;;10.35;2.05;;;4.80;99.90;;;;;;5122426;27;20198;-70
2022/01/21 13:43:14;;;;;;;7.03;1.83;;;4.80;99.90;;;;;;5113343;27;20196;-71
2022/01/21 13:45:54;;;;;;;8.20;2.15;;;4.90;99.90;;;;;;5111701;27;20225;-70
2022/01/21 13:48:23;;;;;;;5.32;1.67;;;5.00;99.90;;;;;;5120495;27;20818;-73
2022/01/21 13:50:52;;;;;;;11.18;1.90;;;5.00;99.90;;;;;;5122772;27;20246;-73
2022/01/21 13:53:22;;;;;;;15.73;2.42;;;5.10;99.90;;;;;;5122376;27;20241;-72
2022/01/21 13:55:52;;;;;;;5.53;2.03;;;5.00;99.90;;;;;;5122652;27;20199;-70